sensor_id;sensor_type;location;lat;lon;timestamp;temperature;humidity
80218;DHT22;69533;37.974;23.708;2023-05-24T00:01:18;24.80;44.40
80218;DHT22;69533;37.974;23.708;2023-05-24T00:03:53;24.90;44.40
80218;DHT22;69533;37.974;23.708;2023-05-24T00:06:24;24.80;44.50
80218;DHT22;69533;37.974;23.708;2023-05-24T00:08:53;24.80;44.50
80218;DHT22;69533;37.974;23.708;2023-05-24T00:11:19;24.80;44.40
80218;DHT22;69533;37.974;23.708;2023-05-24T00:13:45;24.80;44.40
80218;DHT22;69533;37.974;23.708;2023-05-24T00:16:11;24.90;45.40
80218;DHT22;69533;37.974;23.708;2023-05-24T00:18:36;24.80;44.50
80218;DHT22;69533;37.974;23.708;2023-05-24T00:21:09;24.80;44.60
80218;DHT22;69533;37.974;23.708;2023-05-24T00:23:35;24.80;44.60
80218;DHT22;69533;37.974;23.708;2023-05-24T00:26:04;24.80;44.80
80218;DHT22;69533;37.974;23.708;2023-05-24T00:28:30;24.80;44.90
80218;DHT22;69533;37.974;23.708;2023-05-24T00:30:58;24.80;45.00
80218;DHT22;69533;37.974;23.708;2023-05-24T00:33:24;24.80;45.00
80218;DHT22;69533;37.974;23.708;2023-05-24T00:35:50;24.80;45.00
80218;DHT22;69533;37.974;23.708;2023-05-24T00:38:27;24.70;45.00
80218;DHT22;69533;37.974;23.708;2023-05-24T00:40:53;24.70;45.20
80218;DHT22;69533;37.974;23.708;2023-05-24T00:43:22;24.70;45.30
80218;DHT22;69533;37.974;23.708;2023-05-24T00:46:43;24.70;45.40
80218;DHT22;69533;37.974;23.708;2023-05-24T00:48:44;24.70;45.60
80218;DHT22;69533;37.974;23.708;2023-05-24T00:51:11;24.70;45.50
80218;DHT22;69533;37.974;23.708;2023-05-24T00:53:37;24.70;45.40
80218;DHT22;69533;37.974;23.708;2023-05-24T00:56:04;24.70;45.40
80218;DHT22;69533;37.974;23.708;2023-05-24T00:58:31;24.60;45.40
80218;DHT22;69533;37.974;23.708;2023-05-24T01:01:01;24.70;45.40
80218;DHT22;69533;37.974;23.708;2023-05-24T01:03:28;24.70;45.30
80218;DHT22;69533;37.974;23.708;2023-05-24T01:05:58;24.70;45.20
80218;DHT22;69533;37.974;23.708;2023-05-24T01:11:58;24.60;45.00
80218;DHT22;69533;37.974;23.708;2023-05-24T01:19:48;24.60;44.80
80218;DHT22;69533;37.974;23.708;2023-05-24T01:27:30;24.60;44.60
80218;DHT22;69533;37.974;23.708;2023-05-24T01:29:59;24.60;44.60
80218;DHT22;69533;37.974;23.708;2023-05-24T01:32:25;24.60;44.60
80218;DHT22;69533;37.974;23.708;2023-05-24T01:34:51;24.60;44.50
80218;DHT22;69533;37.974;23.708;2023-05-24T01:37:17;24.60;44.50
80218;DHT22;69533;37.974;23.708;2023-05-24T01:39:43;24.60;44.50
80218;DHT22;69533;37.974;23.708;2023-05-24T01:42:23;24.60;44.50
80218;DHT22;69533;37.974;23.708;2023-05-24T01:49:58;24.60;44.50
80218;DHT22;69533;37.974;23.708;2023-05-24T01:52:28;24.50;44.40
80218;DHT22;69533;37.974;23.708;2023-05-24T01:54:56;24.50;44.40
80218;DHT22;69533;37.974;23.708;2023-05-24T01:57:22;24.50;44.40
80218;DHT22;69533;37.974;23.708;2023-05-24T01:59:49;24.50;44.40
80218;DHT22;69533;37.974;23.708;2023-05-24T02:02:16;24.50;44.40
80218;DHT22;69533;37.974;23.708;2023-05-24T02:04:42;24.50;44.40
80218;DHT22;69533;37.974;23.708;2023-05-24T02:07:08;24.50;44.40
80218;DHT22;69533;37.974;23.708;2023-05-24T02:09:34;24.50;44.30
80218;DHT22;69533;37.974;23.708;2023-05-24T02:11:59;24.60;44.40
80218;DHT22;69533;37.974;23.708;2023-05-24T02:14:25;24.50;44.40
80218;DHT22;69533;37.974;23.708;2023-05-24T02:16:51;24.50;44.40
80218;DHT22;69533;37.974;23.708;2023-05-24T02:19:17;24.50;44.50
80218;DHT22;69533;37.974;23.708;2023-05-24T02:21:43;24.50;44.50
80218;DHT22;69533;37.974;23.708;2023-05-24T02:24:08;24.50;44.50
80218;DHT22;69533;37.974;23.708;2023-05-24T02:26:37;24.50;44.50
80218;DHT22;69533;37.974;23.708;2023-05-24T02:29:03;24.50;44.40
80218;DHT22;69533;37.974;23.708;2023-05-24T02:31:29;24.40;44.50
80218;DHT22;69533;37.974;23.708;2023-05-24T02:33:56;24.50;44.60
80218;DHT22;69533;37.974;23.708;2023-05-24T02:36:23;24.50;44.60
80218;DHT22;69533;37.974;23.708;2023-05-24T02:38:49;24.50;44.60
80218;DHT22;69533;37.974;23.708;2023-05-24T02:41:15;24.50;44.90
80218;DHT22;69533;37.974;23.708;2023-05-24T02:43:43;24.40;44.90
80218;DHT22;69533;37.974;23.708;2023-05-24T02:46:09;24.40;45.00
80218;DHT22;69533;37.974;23.708;2023-05-24T02:48:34;24.40;45.20
80218;DHT22;69533;37.974;23.708;2023-05-24T02:51:01;24.40;45.20
80218;DHT22;69533;37.974;23.708;2023-05-24T02:53:30;24.40;45.30
80218;DHT22;69533;37.974;23.708;2023-05-24T02:55:57;24.40;45.40
80218;DHT22;69533;37.974;23.708;2023-05-24T02:58:22;24.40;45.40
80218;DHT22;69533;37.974;23.708;2023-05-24T03:00:49;24.40;45.40
80218;DHT22;69533;37.974;23.708;2023-05-24T03:03:14;24.40;45.60
80218;DHT22;69533;37.974;23.708;2023-05-24T03:05:40;24.40;45.60
80218;DHT22;69533;37.974;23.708;2023-05-24T03:08:06;24.40;45.70
80218;DHT22;69533;37.974;23.708;2023-05-24T03:10:32;24.40;45.80
80218;DHT22;69533;37.974;23.708;2023-05-24T03:12:58;24.40;45.90
80218;DHT22;69533;37.974;23.708;2023-05-24T03:15:24;24.30;45.90
80218;DHT22;69533;37.974;23.708;2023-05-24T03:17:49;24.40;45.90
80218;DHT22;69533;37.974;23.708;2023-05-24T03:20:16;24.40;46.00
80218;DHT22;69533;37.974;23.708;2023-05-24T03:22:42;24.40;46.10
80218;DHT22;69533;37.974;23.708;2023-05-24T03:25:08;24.40;46.20
80218;DHT22;69533;37.974;23.708;2023-05-24T03:27:37;24.40;46.20
80218;DHT22;69533;37.974;23.708;2023-05-24T03:30:03;24.40;46.30
80218;DHT22;69533;37.974;23.708;2023-05-24T03:32:31;24.40;46.30
80218;DHT22;69533;37.974;23.708;2023-05-24T03:34:57;24.40;46.50
80218;DHT22;69533;37.974;23.708;2023-05-24T03:37:26;24.40;46.40
80218;DHT22;69533;37.974;23.708;2023-05-24T03:39:52;24.40;46.40
80218;DHT22;69533;37.974;23.708;2023-05-24T03:42:17;24.40;46.30
80218;DHT22;69533;37.974;23.708;2023-05-24T03:44:43;24.40;46.30
80218;DHT22;69533;37.974;23.708;2023-05-24T03:47:09;24.40;46.30
80218;DHT22;69533;37.974;23.708;2023-05-24T03:49:35;24.40;46.30
80218;DHT22;69533;37.974;23.708;2023-05-24T03:52:00;24.50;46.30
80218;DHT22;69533;37.974;23.708;2023-05-24T03:54:26;24.50;46.30
80218;DHT22;69533;37.974;23.708;2023-05-24T03:56:52;24.60;46.20
80218;DHT22;69533;37.974;23.708;2023-05-24T03:59:18;24.60;46.00
80218;DHT22;69533;37.974;23.708;2023-05-24T04:01:44;24.60;45.90
80218;DHT22;69533;37.974;23.708;2023-05-24T04:04:10;24.70;45.90
80218;DHT22;69533;37.974;23.708;2023-05-24T04:06:36;24.70;45.70
80218;DHT22;69533;37.974;23.708;2023-05-24T04:09:02;24.80;45.50
80218;DHT22;69533;37.974;23.708;2023-05-24T04:11:30;24.80;45.30
80218;DHT22;69533;37.974;23.708;2023-05-24T04:13:57;24.90;45.10
80218;DHT22;69533;37.974;23.708;2023-05-24T04:16:26;25.00;45.90
80218;DHT22;69533;37.974;23.708;2023-05-24T04:18:55;25.10;44.70
80218;DHT22;69533;37.974;23.708;2023-05-24T04:21:22;25.10;44.30
80218;DHT22;69533;37.974;23.708;2023-05-24T04:23:47;25.20;44.00
80218;DHT22;69533;37.974;23.708;2023-05-24T04:26:13;25.30;43.90
80218;DHT22;69533;37.974;23.708;2023-05-24T04:28:40;25.40;44.00
80218;DHT22;69533;37.974;23.708;2023-05-24T04:31:06;25.50;43.90
80218;DHT22;69533;37.974;23.708;2023-05-24T04:33:35;25.50;43.50
80218;DHT22;69533;37.974;23.708;2023-05-24T04:36:01;25.60;43.30
80218;DHT22;69533;37.974;23.708;2023-05-24T04:38:27;25.70;43.30
80218;DHT22;69533;37.974;23.708;2023-05-24T04:41:00;25.70;43.10
80218;DHT22;69533;37.974;23.708;2023-05-24T04:43:26;25.80;42.80
80218;DHT22;69533;37.974;23.708;2023-05-24T04:45:53;25.90;42.50
80218;DHT22;69533;37.974;23.708;2023-05-24T04:48:22;26.00;42.20
80218;DHT22;69533;37.974;23.708;2023-05-24T04:50:55;26.10;41.90
80218;DHT22;69533;37.974;23.708;2023-05-24T04:53:21;26.20;41.70
80218;DHT22;69533;37.974;23.708;2023-05-24T04:55:48;26.20;41.40
80218;DHT22;69533;37.974;23.708;2023-05-24T04:58:14;26.30;41.10
80218;DHT22;69533;37.974;23.708;2023-05-24T05:00:41;26.40;40.80
80218;DHT22;69533;37.974;23.708;2023-05-24T05:03:07;26.50;40.50
80218;DHT22;69533;37.974;23.708;2023-05-24T05:05:33;26.70;40.40
80218;DHT22;69533;37.974;23.708;2023-05-24T05:08:00;26.80;40.10
80218;DHT22;69533;37.974;23.708;2023-05-24T05:10:26;26.80;39.80
80218;DHT22;69533;37.974;23.708;2023-05-24T05:12:52;26.90;39.60
80218;DHT22;69533;37.974;23.708;2023-05-24T05:15:20;27.10;39.40
80218;DHT22;69533;37.974;23.708;2023-05-24T05:17:46;27.20;39.20
80218;DHT22;69533;37.974;23.708;2023-05-24T05:20:12;27.20;38.80
80218;DHT22;69533;37.974;23.708;2023-05-24T05:22:38;27.30;38.70
80218;DHT22;69533;37.974;23.708;2023-05-24T05:25:04;27.50;38.40
80218;DHT22;69533;37.974;23.708;2023-05-24T05:27:29;27.50;38.00
80218;DHT22;69533;37.974;23.708;2023-05-24T05:29:55;27.70;37.90
80218;DHT22;69533;37.974;23.708;2023-05-24T05:32:21;27.80;37.50
80218;DHT22;69533;37.974;23.708;2023-05-24T05:34:47;27.90;37.30
80218;DHT22;69533;37.974;23.708;2023-05-24T05:37:12;28.00;37.10
80218;DHT22;69533;37.974;23.708;2023-05-24T05:39:38;28.10;36.80
80218;DHT22;69533;37.974;23.708;2023-05-24T05:42:04;28.20;36.60
80218;DHT22;69533;37.974;23.708;2023-05-24T05:44:30;28.30;36.30
80218;DHT22;69533;37.974;23.708;2023-05-24T05:46:55;28.40;36.10
80218;DHT22;69533;37.974;23.708;2023-05-24T05:49:21;28.50;35.90
80218;DHT22;69533;37.974;23.708;2023-05-24T05:51:47;28.60;35.60
80218;DHT22;69533;37.974;23.708;2023-05-24T05:54:13;28.80;35.40
80218;DHT22;69533;37.974;23.708;2023-05-24T05:56:40;28.90;35.10
80218;DHT22;69533;37.974;23.708;2023-05-24T05:59:15;29.00;34.80
80218;DHT22;69533;37.974;23.708;2023-05-24T06:01:42;29.10;34.60
80218;DHT22;69533;37.974;23.708;2023-05-24T06:04:08;29.20;34.30
80218;DHT22;69533;37.974;23.708;2023-05-24T06:06:34;29.30;34.10
80218;DHT22;69533;37.974;23.708;2023-05-24T06:09:00;29.40;33.80
80218;DHT22;69533;37.974;23.708;2023-05-24T06:11:26;29.50;33.60
80218;DHT22;69533;37.974;23.708;2023-05-24T06:13:52;29.60;33.40
80218;DHT22;69533;37.974;23.708;2023-05-24T06:16:18;29.70;32.90
80218;DHT22;69533;37.974;23.708;2023-05-24T06:18:46;29.80;32.80
80218;DHT22;69533;37.974;23.708;2023-05-24T06:21:15;29.90;32.70
80218;DHT22;69533;37.974;23.708;2023-05-24T06:23:41;29.90;32.50
80218;DHT22;69533;37.974;23.708;2023-05-24T06:26:07;30.10;32.50
80218;DHT22;69533;37.974;23.708;2023-05-24T06:28:35;30.10;32.20
80218;DHT22;69533;37.974;23.708;2023-05-24T06:31:02;30.20;32.00
80218;DHT22;69533;37.974;23.708;2023-05-24T06:33:28;30.30;32.00
80218;DHT22;69533;37.974;23.708;2023-05-24T06:35:54;30.40;31.90
80218;DHT22;69533;37.974;23.708;2023-05-24T06:38:20;30.50;31.80
80218;DHT22;69533;37.974;23.708;2023-05-24T06:40:46;30.60;31.60
80218;DHT22;69533;37.974;23.708;2023-05-24T06:43:11;30.60;31.40
80218;DHT22;69533;37.974;23.708;2023-05-24T06:45:37;30.70;31.30
80218;DHT22;69533;37.974;23.708;2023-05-24T06:48:03;30.80;31.30
80218;DHT22;69533;37.974;23.708;2023-05-24T06:50:28;30.90;31.20
80218;DHT22;69533;37.974;23.708;2023-05-24T06:52:54;31.00;31.10
80218;DHT22;69533;37.974;23.708;2023-05-24T06:55:20;31.00;31.00
80218;DHT22;69533;37.974;23.708;2023-05-24T06:57:46;31.00;30.90
80218;DHT22;69533;37.974;23.708;2023-05-24T07:00:12;31.10;31.00
80218;DHT22;69533;37.974;23.708;2023-05-24T07:02:38;31.10;31.00
80218;DHT22;69533;37.974;23.708;2023-05-24T07:05:05;31.10;31.00
80218;DHT22;69533;37.974;23.708;2023-05-24T07:07:30;31.20;31.10
80218;DHT22;69533;37.974;23.708;2023-05-24T07:09:57;31.20;31.10
80218;DHT22;69533;37.974;23.708;2023-05-24T07:12:22;31.20;31.10
80218;DHT22;69533;37.974;23.708;2023-05-24T07:14:48;31.20;31.10
80218;DHT22;69533;37.974;23.708;2023-05-24T07:17:14;31.20;31.20
80218;DHT22;69533;37.974;23.708;2023-05-24T07:19:40;31.10;31.30
80218;DHT22;69533;37.974;23.708;2023-05-24T07:22:06;31.10;31.40
80218;DHT22;69533;37.974;23.708;2023-05-24T07:24:31;31.10;31.50
80218;DHT22;69533;37.974;23.708;2023-05-24T07:26:57;31.00;31.50
80218;DHT22;69533;37.974;23.708;2023-05-24T07:29:23;31.00;31.70
80218;DHT22;69533;37.974;23.708;2023-05-24T07:31:49;30.90;31.80
80218;DHT22;69533;37.974;23.708;2023-05-24T07:34:15;30.80;31.90
80218;DHT22;69533;37.974;23.708;2023-05-24T07:36:41;30.70;32.00
80218;DHT22;69533;37.974;23.708;2023-05-24T07:39:07;30.70;32.20
80218;DHT22;69533;37.974;23.708;2023-05-24T07:41:35;30.70;33.20
80218;DHT22;69533;37.974;23.708;2023-05-24T07:44:01;30.60;32.20
80218;DHT22;69533;37.974;23.708;2023-05-24T07:46:26;30.60;32.30
80218;DHT22;69533;37.974;23.708;2023-05-24T07:48:52;30.40;32.50
80218;DHT22;69533;37.974;23.708;2023-05-24T07:51:18;30.30;32.70
80218;DHT22;69533;37.974;23.708;2023-05-24T07:53:45;30.20;33.90
80218;DHT22;69533;37.974;23.708;2023-05-24T07:56:10;30.10;33.10
80218;DHT22;69533;37.974;23.708;2023-05-24T07:58:39;30.00;33.10
80218;DHT22;69533;37.974;23.708;2023-05-24T08:01:06;30.00;33.30
80218;DHT22;69533;37.974;23.708;2023-05-24T08:03:33;29.90;33.30
80218;DHT22;69533;37.974;23.708;2023-05-24T08:05:59;29.80;33.40
80218;DHT22;69533;37.974;23.708;2023-05-24T08:08:24;29.80;33.40
80218;DHT22;69533;37.974;23.708;2023-05-24T08:10:50;29.70;33.60
80218;DHT22;69533;37.974;23.708;2023-05-24T08:13:16;29.60;33.60
80218;DHT22;69533;37.974;23.708;2023-05-24T08:15:41;29.50;33.70
80218;DHT22;69533;37.974;23.708;2023-05-24T08:18:07;29.50;33.80
80218;DHT22;69533;37.974;23.708;2023-05-24T08:20:33;29.40;34.00
80218;DHT22;69533;37.974;23.708;2023-05-24T08:23:01;29.30;34.00
80218;DHT22;69533;37.974;23.708;2023-05-24T08:25:27;29.30;34.10
80218;DHT22;69533;37.974;23.708;2023-05-24T08:27:53;29.30;34.20
80218;DHT22;69533;37.974;23.708;2023-05-24T08:30:20;29.20;34.10
80218;DHT22;69533;37.974;23.708;2023-05-24T08:32:46;29.20;34.10
80218;DHT22;69533;37.974;23.708;2023-05-24T08:35:11;29.10;34.10
80218;DHT22;69533;37.974;23.708;2023-05-24T08:37:37;29.10;34.10
80218;DHT22;69533;37.974;23.708;2023-05-24T08:40:03;29.00;34.10
80218;DHT22;69533;37.974;23.708;2023-05-24T08:42:29;29.10;34.30
80218;DHT22;69533;37.974;23.708;2023-05-24T08:45:06;29.00;34.30
80218;DHT22;69533;37.974;23.708;2023-05-24T08:47:35;29.00;34.40
80218;DHT22;69533;37.974;23.708;2023-05-24T08:50:02;29.00;34.40
80218;DHT22;69533;37.974;23.708;2023-05-24T08:52:29;28.90;34.40
80218;DHT22;69533;37.974;23.708;2023-05-24T08:54:57;28.90;34.40
80218;DHT22;69533;37.974;23.708;2023-05-24T08:57:25;28.90;34.50
80218;DHT22;69533;37.974;23.708;2023-05-24T08:59:51;28.90;34.50
80218;DHT22;69533;37.974;23.708;2023-05-24T09:02:20;29.00;34.50
80218;DHT22;69533;37.974;23.708;2023-05-24T09:04:48;28.90;34.40
80218;DHT22;69533;37.974;23.708;2023-05-24T09:07:16;28.90;34.40
80218;DHT22;69533;37.974;23.708;2023-05-24T09:09:46;28.90;34.10
80218;DHT22;69533;37.974;23.708;2023-05-24T09:12:14;28.90;34.10
80218;DHT22;69533;37.974;23.708;2023-05-24T09:14:45;28.90;34.10
80218;DHT22;69533;37.974;23.708;2023-05-24T09:17:12;28.90;34.00
80218;DHT22;69533;37.974;23.708;2023-05-24T09:19:44;28.90;34.00
80218;DHT22;69533;37.974;23.708;2023-05-24T09:22:13;29.00;34.10
80218;DHT22;69533;37.974;23.708;2023-05-24T09:24:49;29.00;33.90
80218;DHT22;69533;37.974;23.708;2023-05-24T09:27:15;29.00;33.80
80218;DHT22;69533;37.974;23.708;2023-05-24T09:29:42;29.00;33.70
80218;DHT22;69533;37.974;23.708;2023-05-24T09:32:14;29.00;33.70
80218;DHT22;69533;37.974;23.708;2023-05-24T09:34:44;29.00;33.60
80218;DHT22;69533;37.974;23.708;2023-05-24T09:37:14;29.10;33.60
80218;DHT22;69533;37.974;23.708;2023-05-24T09:39:44;29.00;33.50
80218;DHT22;69533;37.974;23.708;2023-05-24T09:42:16;29.10;33.60
80218;DHT22;69533;37.974;23.708;2023-05-24T09:44:46;29.00;33.40
80218;DHT22;69533;37.974;23.708;2023-05-24T09:47:12;29.10;33.30
80218;DHT22;69533;37.974;23.708;2023-05-24T09:49:39;29.10;33.30
80218;DHT22;69533;37.974;23.708;2023-05-24T09:52:04;29.10;33.20
80218;DHT22;69533;37.974;23.708;2023-05-24T09:54:33;29.10;33.20
80218;DHT22;69533;37.974;23.708;2023-05-24T09:57:01;29.10;33.30
80218;DHT22;69533;37.974;23.708;2023-05-24T09:59:32;29.10;33.30
80218;DHT22;69533;37.974;23.708;2023-05-24T10:02:08;29.10;33.30
80218;DHT22;69533;37.974;23.708;2023-05-24T10:04:35;29.10;33.20
80218;DHT22;69533;37.974;23.708;2023-05-24T10:07:01;29.10;33.10
80218;DHT22;69533;37.974;23.708;2023-05-24T10:09:28;29.10;33.10
80218;DHT22;69533;37.974;23.708;2023-05-24T10:12:04;29.10;33.20
80218;DHT22;69533;37.974;23.708;2023-05-24T10:14:37;29.00;33.10
80218;DHT22;69533;37.974;23.708;2023-05-24T10:17:06;29.00;33.30
80218;DHT22;69533;37.974;23.708;2023-05-24T10:19:33;29.00;33.10
80218;DHT22;69533;37.974;23.708;2023-05-24T10:22:00;29.00;33.10
80218;DHT22;69533;37.974;23.708;2023-05-24T10:24:32;28.90;33.10
80218;DHT22;69533;37.974;23.708;2023-05-24T10:27:03;29.00;34.30
80218;DHT22;69533;37.974;23.708;2023-05-24T10:32:18;28.90;33.40
80218;DHT22;69533;37.974;23.708;2023-05-24T10:34:47;29.00;33.40
80218;DHT22;69533;37.974;23.708;2023-05-24T10:37:19;29.00;33.40
80218;DHT22;69533;37.974;23.708;2023-05-24T10:39:44;28.90;33.40
80218;DHT22;69533;37.974;23.708;2023-05-24T10:42:11;28.90;33.60
80218;DHT22;69533;37.974;23.708;2023-05-24T10:44:37;28.90;33.60
80218;DHT22;69533;37.974;23.708;2023-05-24T10:47:08;28.90;33.80
80218;DHT22;69533;37.974;23.708;2023-05-24T10:49:36;28.90;33.90
80218;DHT22;69533;37.974;23.708;2023-05-24T10:52:09;28.90;34.20
80218;DHT22;69533;37.974;23.708;2023-05-24T10:54:37;28.90;34.50
80218;DHT22;69533;37.974;23.708;2023-05-24T10:57:03;28.90;34.70
80218;DHT22;69533;37.974;23.708;2023-05-24T10:59:36;28.80;34.80
80218;DHT22;69533;37.974;23.708;2023-05-24T11:02:07;28.80;34.90
80218;DHT22;69533;37.974;23.708;2023-05-24T11:04:39;28.70;35.00
80218;DHT22;69533;37.974;23.708;2023-05-24T11:07:06;28.70;35.00
80218;DHT22;69533;37.974;23.708;2023-05-24T11:09:38;28.80;34.90
80218;DHT22;69533;37.974;23.708;2023-05-24T11:12:18;28.80;35.00
80218;DHT22;69533;37.974;23.708;2023-05-24T11:14:49;28.80;35.00
80218;DHT22;69533;37.974;23.708;2023-05-24T11:17:17;28.80;35.10
80218;DHT22;69533;37.974;23.708;2023-05-24T11:22:14;28.80;35.30
80218;DHT22;69533;37.974;23.708;2023-05-24T11:24:41;28.90;35.60
80218;DHT22;69533;37.974;23.708;2023-05-24T11:27:10;28.90;35.50
80218;DHT22;69533;37.974;23.708;2023-05-24T11:29:43;29.00;35.60
80218;DHT22;69533;37.974;23.708;2023-05-24T11:32:14;28.90;35.60
80218;DHT22;69533;37.974;23.708;2023-05-24T11:34:40;28.80;35.60
80218;DHT22;69533;37.974;23.708;2023-05-24T11:37:09;28.80;35.70
80218;DHT22;69533;37.974;23.708;2023-05-24T11:39:36;28.80;35.70
80218;DHT22;69533;37.974;23.708;2023-05-24T11:42:06;28.70;35.70
80218;DHT22;69533;37.974;23.708;2023-05-24T11:44:33;28.70;35.70
80218;DHT22;69533;37.974;23.708;2023-05-24T11:47:00;28.70;35.70
80218;DHT22;69533;37.974;23.708;2023-05-24T11:49:27;28.70;35.70
80218;DHT22;69533;37.974;23.708;2023-05-24T11:51:54;28.70;35.60
80218;DHT22;69533;37.974;23.708;2023-05-24T11:54:24;28.70;35.60
80218;DHT22;69533;37.974;23.708;2023-05-24T11:56:51;28.70;35.60
80218;DHT22;69533;37.974;23.708;2023-05-24T11:59:22;28.70;35.50
80218;DHT22;69533;37.974;23.708;2023-05-24T12:02:03;28.70;35.60
80218;DHT22;69533;37.974;23.708;2023-05-24T12:04:31;28.60;35.60
80218;DHT22;69533;37.974;23.708;2023-05-24T12:06:57;28.60;35.60
80218;DHT22;69533;37.974;23.708;2023-05-24T12:09:23;28.60;35.60
80218;DHT22;69533;37.974;23.708;2023-05-24T12:11:50;28.60;35.60
80218;DHT22;69533;37.974;23.708;2023-05-24T12:14:18;28.60;35.60
80218;DHT22;69533;37.974;23.708;2023-05-24T12:16:45;28.60;35.60
80218;DHT22;69533;37.974;23.708;2023-05-24T12:19:18;28.60;35.60
80218;DHT22;69533;37.974;23.708;2023-05-24T12:21:45;28.60;35.60
80218;DHT22;69533;37.974;23.708;2023-05-24T12:24:14;28.60;35.60
80218;DHT22;69533;37.974;23.708;2023-05-24T12:26:42;28.60;35.70
80218;DHT22;69533;37.974;23.708;2023-05-24T12:29:11;28.60;35.70
80218;DHT22;69533;37.974;23.708;2023-05-24T12:31:47;28.60;35.80
80218;DHT22;69533;37.974;23.708;2023-05-24T12:34:14;28.60;35.80
80218;DHT22;69533;37.974;23.708;2023-05-24T12:36:41;28.60;35.70
80218;DHT22;69533;37.974;23.708;2023-05-24T12:41:43;28.70;35.70
80218;DHT22;69533;37.974;23.708;2023-05-24T12:44:10;28.70;35.60
80218;DHT22;69533;37.974;23.708;2023-05-24T12:46:36;28.70;35.70
80218;DHT22;69533;37.974;23.708;2023-05-24T12:49:02;28.70;35.60
80218;DHT22;69533;37.974;23.708;2023-05-24T12:51:29;28.70;35.50
80218;DHT22;69533;37.974;23.708;2023-05-24T12:53:55;28.70;35.60
80218;DHT22;69533;37.974;23.708;2023-05-24T12:56:21;28.70;35.60
80218;DHT22;69533;37.974;23.708;2023-05-24T12:58:49;28.60;36.50
80218;DHT22;69533;37.974;23.708;2023-05-24T13:01:18;28.50;35.40
80218;DHT22;69533;37.974;23.708;2023-05-24T13:03:43;28.50;35.50
80218;DHT22;69533;37.974;23.708;2023-05-24T13:06:09;28.50;35.40
80218;DHT22;69533;37.974;23.708;2023-05-24T13:08:35;28.50;35.30
80218;DHT22;69533;37.974;23.708;2023-05-24T13:11:01;28.50;35.30
80218;DHT22;69533;37.974;23.708;2023-05-24T13:13:27;28.40;35.30
80218;DHT22;69533;37.974;23.708;2023-05-24T13:15:53;28.40;35.30
80218;DHT22;69533;37.974;23.708;2023-05-24T13:18:19;28.40;35.30
80218;DHT22;69533;37.974;23.708;2023-05-24T13:20:44;28.30;35.20
80218;DHT22;69533;37.974;23.708;2023-05-24T13:23:10;28.40;35.30
80218;DHT22;69533;37.974;23.708;2023-05-24T13:25:37;28.30;35.20
80218;DHT22;69533;37.974;23.708;2023-05-24T13:28:03;28.30;35.30
80218;DHT22;69533;37.974;23.708;2023-05-24T13:30:29;28.30;35.30
80218;DHT22;69533;37.974;23.708;2023-05-24T13:32:55;28.30;35.40
80218;DHT22;69533;37.974;23.708;2023-05-24T13:35:20;28.20;35.40
80218;DHT22;69533;37.974;23.708;2023-05-24T13:37:47;28.10;35.50
80218;DHT22;69533;37.974;23.708;2023-05-24T13:40:13;28.10;35.60
80218;DHT22;69533;37.974;23.708;2023-05-24T13:42:38;28.10;35.50
80218;DHT22;69533;37.974;23.708;2023-05-24T13:45:05;28.10;35.60
80218;DHT22;69533;37.974;23.708;2023-05-24T13:47:31;28.00;35.60
80218;DHT22;69533;37.974;23.708;2023-05-24T13:49:56;28.00;35.80
80218;DHT22;69533;37.974;23.708;2023-05-24T13:52:22;28.00;35.90
80218;DHT22;69533;37.974;23.708;2023-05-24T13:54:48;27.90;36.00
80218;DHT22;69533;37.974;23.708;2023-05-24T13:57:14;27.90;36.10
80218;DHT22;69533;37.974;23.708;2023-05-24T13:59:40;27.90;36.20
80218;DHT22;69533;37.974;23.708;2023-05-24T14:02:06;28.00;36.40
80218;DHT22;69533;37.974;23.708;2023-05-24T14:04:33;27.90;36.30
80218;DHT22;69533;37.974;23.708;2023-05-24T14:06:58;27.90;36.40
80218;DHT22;69533;37.974;23.708;2023-05-24T14:09:24;27.90;36.50
80218;DHT22;69533;37.974;23.708;2023-05-24T14:11:51;27.90;36.60
80218;DHT22;69533;37.974;23.708;2023-05-24T14:14:17;27.90;36.60
80218;DHT22;69533;37.974;23.708;2023-05-24T14:16:42;27.90;36.50
80218;DHT22;69533;37.974;23.708;2023-05-24T14:19:08;27.90;36.50
80218;DHT22;69533;37.974;23.708;2023-05-24T14:21:34;27.90;36.50
80218;DHT22;69533;37.974;23.708;2023-05-24T14:24:00;27.90;36.40
80218;DHT22;69533;37.974;23.708;2023-05-24T14:26:26;27.90;36.40
80218;DHT22;69533;37.974;23.708;2023-05-24T14:28:52;27.90;37.40
80218;DHT22;69533;37.974;23.708;2023-05-24T14:31:17;27.90;36.30
80218;DHT22;69533;37.974;23.708;2023-05-24T14:33:43;27.90;36.30
80218;DHT22;69533;37.974;23.708;2023-05-24T14:36:09;27.90;36.40
80218;DHT22;69533;37.974;23.708;2023-05-24T14:38:35;27.80;36.40
80218;DHT22;69533;37.974;23.708;2023-05-24T14:41:01;27.80;36.60
80218;DHT22;69533;37.974;23.708;2023-05-24T14:43:27;27.80;36.60
80218;DHT22;69533;37.974;23.708;2023-05-24T14:45:53;27.70;36.60
80218;DHT22;69533;37.974;23.708;2023-05-24T14:48:19;27.70;36.70
80218;DHT22;69533;37.974;23.708;2023-05-24T14:50:44;27.70;36.80
80218;DHT22;69533;37.974;23.708;2023-05-24T14:53:11;27.70;36.80
80218;DHT22;69533;37.974;23.708;2023-05-24T14:55:37;27.70;36.90
80218;DHT22;69533;37.974;23.708;2023-05-24T14:58:04;27.60;36.90
80218;DHT22;69533;37.974;23.708;2023-05-24T15:00:31;27.60;37.00
80218;DHT22;69533;37.974;23.708;2023-05-24T15:02:56;27.60;37.00
80218;DHT22;69533;37.974;23.708;2023-05-24T15:05:22;27.60;37.00
80218;DHT22;69533;37.974;23.708;2023-05-24T15:07:48;27.70;37.10
80218;DHT22;69533;37.974;23.708;2023-05-24T15:10:13;27.60;37.10
80218;DHT22;69533;37.974;23.708;2023-05-24T15:12:39;27.60;37.20
80218;DHT22;69533;37.974;23.708;2023-05-24T15:15:05;27.60;37.30
80218;DHT22;69533;37.974;23.708;2023-05-24T15:17:32;27.60;37.40
80218;DHT22;69533;37.974;23.708;2023-05-24T15:19:57;27.60;37.40
80218;DHT22;69533;37.974;23.708;2023-05-24T15:22:24;27.60;37.40
80218;DHT22;69533;37.974;23.708;2023-05-24T15:24:51;27.60;37.50
80218;DHT22;69533;37.974;23.708;2023-05-24T15:27:17;27.60;37.50
80218;DHT22;69533;37.974;23.708;2023-05-24T15:29:43;27.60;37.50
80218;DHT22;69533;37.974;23.708;2023-05-24T15:32:08;27.60;37.50
80218;DHT22;69533;37.974;23.708;2023-05-24T15:34:34;27.60;37.60
80218;DHT22;69533;37.974;23.708;2023-05-24T15:37:00;27.60;37.60
80218;DHT22;69533;37.974;23.708;2023-05-24T15:39:26;27.60;37.70
80218;DHT22;69533;37.974;23.708;2023-05-24T15:41:52;27.50;37.60